sensor_id;sensor_type;location;lat;lon;timestamp;P1;durP1;ratioP1;P2;durP2;ratioP2
12715;SDS011;6422;49.938;9.124;2022-09-09T00:00:42;9.43;;;1.70;;
12715;SDS011;6422;49.938;9.124;2022-09-09T00:03:14;9.90;;;2.10;;
12715;SDS011;6422;49.938;9.124;2022-09-09T00:08:18;7.17;;;1.30;;
12715;SDS011;6422;49.938;9.124;2022-09-09T00:10:44;10.50;;;1.60;;
12715;SDS011;6422;49.938;9.124;2022-09-09T00:16:05;7.27;;;1.77;;
12715;SDS011;6422;49.938;9.124;2022-09-09T00:21:08;10.73;;;2.00;;
12715;SDS011;6422;49.938;9.124;2022-09-09T00:23:37;10.50;;;1.87;;
12715;SDS011;6422;49.938;9.124;2022-09-09T00:28:36;9.33;;;1.60;;
12715;SDS011;6422;49.938;9.124;2022-09-09T00:31:14;13.40;;;2.10;;
12715;SDS011;6422;49.938;9.124;2022-09-09T00:33:40;8.90;;;1.60;;
12715;SDS011;6422;49.938;9.124;2022-09-09T00:36:09;9.20;;;1.43;;
12715;SDS011;6422;49.938;9.124;2022-09-09T00:38:41;9.17;;;1.40;;
12715;SDS011;6422;49.938;9.124;2022-09-09T00:41:26;10.40;;;1.60;;
12715;SDS011;6422;49.938;9.124;2022-09-09T00:43:57;11.03;;;1.77;;
12715;SDS011;6422;49.938;9.124;2022-09-09T00:46:40;9.27;;;1.60;;
12715;SDS011;6422;49.938;9.124;2022-09-09T00:54:24;12.80;;;2.53;;
12715;SDS011;6422;49.938;9.124;2022-09-09T01:02:04;10.23;;;1.60;;
12715;SDS011;6422;49.938;9.124;2022-09-09T01:04:34;10.10;;;1.60;;
12715;SDS011;6422;49.938;9.124;2022-09-09T01:07:03;19.13;;;1.50;;
12715;SDS011;6422;49.938;9.124;2022-09-09T01:17:04;5.97;;;1.40;;
12715;SDS011;6422;49.938;9.124;2022-09-09T01:22:09;7.50;;;1.43;;
12715;SDS011;6422;49.938;9.124;2022-09-09T01:24:38;10.33;;;1.70;;
12715;SDS011;6422;49.938;9.124;2022-09-09T01:27:05;6.97;;;1.57;;
12715;SDS011;6422;49.938;9.124;2022-09-09T01:29:31;9.57;;;1.43;;
12715;SDS011;6422;49.938;9.124;2022-09-09T01:31:57;9.80;;;1.43;;
12715;SDS011;6422;49.938;9.124;2022-09-09T01:34:24;6.83;;;1.33;;
12715;SDS011;6422;49.938;9.124;2022-09-09T01:37:02;15.17;;;1.90;;
12715;SDS011;6422;49.938;9.124;2022-09-09T01:39:29;10.53;;;2.00;;
12715;SDS011;6422;49.938;9.124;2022-09-09T01:41:54;15.90;;;1.93;;
12715;SDS011;6422;49.938;9.124;2022-09-09T01:44:20;10.97;;;2.10;;
12715;SDS011;6422;49.938;9.124;2022-09-09T01:46:46;9.57;;;1.77;;
12715;SDS011;6422;49.938;9.124;2022-09-09T01:49:11;8.40;;;1.87;;
12715;SDS011;6422;49.938;9.124;2022-09-09T01:51:37;10.17;;;1.90;;
12715;SDS011;6422;49.938;9.124;2022-09-09T01:54:04;11.00;;;2.07;;
12715;SDS011;6422;49.938;9.124;2022-09-09T02:01:48;9.10;;;1.70;;
12715;SDS011;6422;49.938;9.124;2022-09-09T02:04:23;8.37;;;1.50;;
12715;SDS011;6422;49.938;9.124;2022-09-09T02:06:53;8.30;;;1.53;;
12715;SDS011;6422;49.938;9.124;2022-09-09T02:09:21;12.37;;;1.53;;
12715;SDS011;6422;49.938;9.124;2022-09-09T02:11:47;10.53;;;2.10;;
12715;SDS011;6422;49.938;9.124;2022-09-09T02:14:16;8.33;;;1.30;;
12715;SDS011;6422;49.938;9.124;2022-09-09T02:16:59;11.33;;;1.83;;
12715;SDS011;6422;49.938;9.124;2022-09-09T02:19:29;10.80;;;2.43;;
12715;SDS011;6422;49.938;9.124;2022-09-09T02:21:57;11.50;;;2.30;;
12715;SDS011;6422;49.938;9.124;2022-09-09T02:24:23;13.70;;;2.03;;
12715;SDS011;6422;49.938;9.124;2022-09-09T02:26:49;7.40;;;2.20;;
12715;SDS011;6422;49.938;9.124;2022-09-09T02:29:19;8.03;;;1.87;;
12715;SDS011;6422;49.938;9.124;2022-09-09T02:31:45;15.43;;;2.20;;
12715;SDS011;6422;49.938;9.124;2022-09-09T02:34:11;12.90;;;1.90;;
12715;SDS011;6422;49.938;9.124;2022-09-09T02:36:38;12.73;;;2.50;;
12715;SDS011;6422;49.938;9.124;2022-09-09T02:39:05;11.03;;;2.17;;
12715;SDS011;6422;49.938;9.124;2022-09-09T02:41:33;12.73;;;2.47;;
12715;SDS011;6422;49.938;9.124;2022-09-09T02:43:59;8.13;;;1.63;;
12715;SDS011;6422;49.938;9.124;2022-09-09T02:46:34;13.83;;;2.43;;
12715;SDS011;6422;49.938;9.124;2022-09-09T02:54:20;14.53;;;2.03;;
12715;SDS011;6422;49.938;9.124;2022-09-09T02:56:50;10.37;;;1.77;;
12715;SDS011;6422;49.938;9.124;2022-09-09T02:59:16;12.30;;;2.37;;
12715;SDS011;6422;49.938;9.124;2022-09-09T03:01:42;10.50;;;1.90;;
12715;SDS011;6422;49.938;9.124;2022-09-09T03:04:07;10.40;;;1.93;;
12715;SDS011;6422;49.938;9.124;2022-09-09T03:06:32;8.70;;;2.00;;
12715;SDS011;6422;49.938;9.124;2022-09-09T03:08:57;8.70;;;1.93;;
12715;SDS011;6422;49.938;9.124;2022-09-09T03:11:25;34.23;;;3.77;;
12715;SDS011;6422;49.938;9.124;2022-09-09T03:13:50;14.70;;;2.30;;
12715;SDS011;6422;49.938;9.124;2022-09-09T03:16:16;11.77;;;2.40;;
12715;SDS011;6422;49.938;9.124;2022-09-09T03:18:42;13.43;;;2.43;;
12715;SDS011;6422;49.938;9.124;2022-09-09T03:21:09;9.77;;;2.00;;
12715;SDS011;6422;49.938;9.124;2022-09-09T03:23:36;11.50;;;2.00;;
12715;SDS011;6422;49.938;9.124;2022-09-09T03:26:01;13.47;;;2.30;;
12715;SDS011;6422;49.938;9.124;2022-09-09T03:28:26;12.80;;;2.07;;
12715;SDS011;6422;49.938;9.124;2022-09-09T03:30:58;10.00;;;2.03;;
12715;SDS011;6422;49.938;9.124;2022-09-09T03:33:23;9.63;;;1.47;;
12715;SDS011;6422;49.938;9.124;2022-09-09T03:35:48;21.63;;;2.97;;
12715;SDS011;6422;49.938;9.124;2022-09-09T03:38:13;11.83;;;2.27;;
12715;SDS011;6422;49.938;9.124;2022-09-09T03:40:38;11.17;;;2.40;;
12715;SDS011;6422;49.938;9.124;2022-09-09T03:43:04;12.37;;;2.80;;
12715;SDS011;6422;49.938;9.124;2022-09-09T03:45:29;11.48;;;2.55;;
12715;SDS011;6422;49.938;9.124;2022-09-09T03:47:55;8.73;;;2.10;;
12715;SDS011;6422;49.938;9.124;2022-09-09T03:50:22;9.13;;;1.80;;
12715;SDS011;6422;49.938;9.124;2022-09-09T03:52:48;10.90;;;1.87;;
12715;SDS011;6422;49.938;9.124;2022-09-09T03:55:13;8.47;;;1.80;;
12715;SDS011;6422;49.938;9.124;2022-09-09T03:57:38;11.10;;;1.80;;
12715;SDS011;6422;49.938;9.124;2022-09-09T04:00:04;11.80;;;1.53;;
12715;SDS011;6422;49.938;9.124;2022-09-09T04:02:30;9.20;;;1.80;;
12715;SDS011;6422;49.938;9.124;2022-09-09T04:04:55;11.43;;;1.93;;
12715;SDS011;6422;49.938;9.124;2022-09-09T04:07:21;8.17;;;1.47;;
12715;SDS011;6422;49.938;9.124;2022-09-09T04:09:46;7.50;;;1.30;;
12715;SDS011;6422;49.938;9.124;2022-09-09T04:12:11;7.40;;;1.30;;
12715;SDS011;6422;49.938;9.124;2022-09-09T04:14:38;8.67;;;1.33;;
12715;SDS011;6422;49.938;9.124;2022-09-09T04:17:03;8.33;;;1.73;;
12715;SDS011;6422;49.938;9.124;2022-09-09T04:19:31;9.80;;;1.83;;
12715;SDS011;6422;49.938;9.124;2022-09-09T04:21:56;8.00;;;1.13;;
12715;SDS011;6422;49.938;9.124;2022-09-09T04:24:21;10.07;;;1.50;;
12715;SDS011;6422;49.938;9.124;2022-09-09T04:26:47;7.97;;;1.40;;
12715;SDS011;6422;49.938;9.124;2022-09-09T04:29:12;13.17;;;1.93;;
12715;SDS011;6422;49.938;9.124;2022-09-09T04:31:37;9.10;;;1.50;;
12715;SDS011;6422;49.938;9.124;2022-09-09T04:34:06;13.43;;;2.00;;
12715;SDS011;6422;49.938;9.124;2022-09-09T04:36:32;10.50;;;2.10;;
12715;SDS011;6422;49.938;9.124;2022-09-09T04:38:57;9.67;;;1.60;;
12715;SDS011;6422;49.938;9.124;2022-09-09T04:41:22;7.87;;;1.33;;
12715;SDS011;6422;49.938;9.124;2022-09-09T04:43:47;8.67;;;1.40;;
12715;SDS011;6422;49.938;9.124;2022-09-09T04:46:12;7.67;;;1.20;;
12715;SDS011;6422;49.938;9.124;2022-09-09T04:48:38;10.33;;;1.73;;
12715;SDS011;6422;49.938;9.124;2022-09-09T04:51:06;7.23;;;1.23;;
12715;SDS011;6422;49.938;9.124;2022-09-09T04:53:34;13.73;;;2.13;;
12715;SDS011;6422;49.938;9.124;2022-09-09T04:56:07;10.50;;;1.20;;
12715;SDS011;6422;49.938;9.124;2022-09-09T04:58:32;9.23;;;1.33;;
12715;SDS011;6422;49.938;9.124;2022-09-09T05:01:08;7.20;;;1.47;;
12715;SDS011;6422;49.938;9.124;2022-09-09T05:03:33;7.30;;;1.50;;
12715;SDS011;6422;49.938;9.124;2022-09-09T05:06:02;7.90;;;2.00;;
12715;SDS011;6422;49.938;9.124;2022-09-09T05:08:29;7.53;;;1.23;;
12715;SDS011;6422;49.938;9.124;2022-09-09T05:10:54;8.02;;;1.63;;
12715;SDS011;6422;49.938;9.124;2022-09-09T05:13:20;8.87;;;2.17;;
12715;SDS011;6422;49.938;9.124;2022-09-09T05:15:51;10.07;;;1.50;;
12715;SDS011;6422;49.938;9.124;2022-09-09T05:18:16;6.63;;;1.30;;
12715;SDS011;6422;49.938;9.124;2022-09-09T05:20:41;9.38;;;1.77;;
12715;SDS011;6422;49.938;9.124;2022-09-09T05:23:07;14.20;;;2.40;;
12715;SDS011;6422;49.938;9.124;2022-09-09T05:25:32;6.80;;;1.10;;
12715;SDS011;6422;49.938;9.124;2022-09-09T05:27:58;10.50;;;3.17;;
12715;SDS011;6422;49.938;9.124;2022-09-09T05:30:24;8.70;;;1.80;;
12715;SDS011;6422;49.938;9.124;2022-09-09T05:32:51;14.53;;;1.93;;
12715;SDS011;6422;49.938;9.124;2022-09-09T05:35:16;9.75;;;1.67;;
12715;SDS011;6422;49.938;9.124;2022-09-09T05:37:43;7.90;;;1.43;;
12715;SDS011;6422;49.938;9.124;2022-09-09T05:40:08;8.77;;;1.77;;
12715;SDS011;6422;49.938;9.124;2022-09-09T05:42:35;9.40;;;1.60;;
12715;SDS011;6422;49.938;9.124;2022-09-09T05:45:01;10.90;;;1.97;;
12715;SDS011;6422;49.938;9.124;2022-09-09T05:47:26;9.80;;;1.47;;
12715;SDS011;6422;49.938;9.124;2022-09-09T05:49:52;10.00;;;1.47;;
12715;SDS011;6422;49.938;9.124;2022-09-09T05:52:17;9.97;;;2.13;;
12715;SDS011;6422;49.938;9.124;2022-09-09T05:54:42;8.35;;;1.75;;
12715;SDS011;6422;49.938;9.124;2022-09-09T05:57:08;10.00;;;1.50;;
12715;SDS011;6422;49.938;9.124;2022-09-09T05:59:33;8.13;;;1.97;;
12715;SDS011;6422;49.938;9.124;2022-09-09T06:01:58;9.38;;;2.40;;
12715;SDS011;6422;49.938;9.124;2022-09-09T06:04:24;10.37;;;1.40;;
12715;SDS011;6422;49.938;9.124;2022-09-09T06:06:49;9.87;;;2.07;;
12715;SDS011;6422;49.938;9.124;2022-09-09T06:09:14;8.13;;;1.40;;
12715;SDS011;6422;49.938;9.124;2022-09-09T06:11:40;9.03;;;1.50;;
12715;SDS011;6422;49.938;9.124;2022-09-09T06:14:06;17.83;;;1.60;;
12715;SDS011;6422;49.938;9.124;2022-09-09T06:16:31;7.63;;;1.30;;
12715;SDS011;6422;49.938;9.124;2022-09-09T06:18:57;12.30;;;1.60;;
12715;SDS011;6422;49.938;9.124;2022-09-09T06:21:27;10.07;;;1.90;;
12715;SDS011;6422;49.938;9.124;2022-09-09T06:23:52;11.93;;;1.43;;
12715;SDS011;6422;49.938;9.124;2022-09-09T06:28:43;7.75;;;1.60;;
12715;SDS011;6422;49.938;9.124;2022-09-09T06:31:09;8.07;;;1.60;;
12715;SDS011;6422;49.938;9.124;2022-09-09T06:33:36;11.80;;;1.30;;
12715;SDS011;6422;49.938;9.124;2022-09-09T06:36:04;8.30;;;1.10;;
12715;SDS011;6422;49.938;9.124;2022-09-09T06:38:30;8.50;;;1.50;;
12715;SDS011;6422;49.938;9.124;2022-09-09T06:40:56;6.73;;;1.33;;
12715;SDS011;6422;49.938;9.124;2022-09-09T06:43:22;8.40;;;1.43;;
12715;SDS011;6422;49.938;9.124;2022-09-09T06:46:02;10.63;;;1.23;;
12715;SDS011;6422;49.938;9.124;2022-09-09T06:48:28;6.80;;;1.40;;
12715;SDS011;6422;49.938;9.124;2022-09-09T06:51:00;9.50;;;1.50;;
12715;SDS011;6422;49.938;9.124;2022-09-09T06:53:26;16.53;;;1.73;;
12715;SDS011;6422;49.938;9.124;2022-09-09T06:55:52;11.80;;;1.87;;
12715;SDS011;6422;49.938;9.124;2022-09-09T06:58:17;8.17;;;1.60;;
12715;SDS011;6422;49.938;9.124;2022-09-09T07:00:43;11.17;;;2.10;;
12715;SDS011;6422;49.938;9.124;2022-09-09T07:03:09;14.87;;;1.57;;
12715;SDS011;6422;49.938;9.124;2022-09-09T07:05:34;10.40;;;2.00;;
12715;SDS011;6422;49.938;9.124;2022-09-09T07:08:00;8.85;;;1.20;;
12715;SDS011;6422;49.938;9.124;2022-09-09T07:10:25;8.02;;;1.40;;
12715;SDS011;6422;49.938;9.124;2022-09-09T07:12:53;9.57;;;1.47;;
12715;SDS011;6422;49.938;9.124;2022-09-09T07:15:19;8.70;;;1.37;;
12715;SDS011;6422;49.938;9.124;2022-09-09T07:17:44;21.33;;;1.80;;
12715;SDS011;6422;49.938;9.124;2022-09-09T07:20:10;17.37;;;2.00;;
12715;SDS011;6422;49.938;9.124;2022-09-09T07:22:35;10.40;;;2.03;;
12715;SDS011;6422;49.938;9.124;2022-09-09T07:25:00;9.15;;;1.85;;
12715;SDS011;6422;49.938;9.124;2022-09-09T07:27:27;10.30;;;1.87;;
12715;SDS011;6422;49.938;9.124;2022-09-09T07:29:52;12.13;;;2.20;;
12715;SDS011;6422;49.938;9.124;2022-09-09T07:32:19;8.40;;;1.70;;
12715;SDS011;6422;49.938;9.124;2022-09-09T07:34:44;14.77;;;2.10;;
12715;SDS011;6422;49.938;9.124;2022-09-09T07:37:10;9.40;;;1.97;;
12715;SDS011;6422;49.938;9.124;2022-09-09T07:39:38;8.83;;;1.80;;
12715;SDS011;6422;49.938;9.124;2022-09-09T07:42:03;10.20;;;2.07;;
12715;SDS011;6422;49.938;9.124;2022-09-09T07:44:30;17.17;;;2.60;;
12715;SDS011;6422;49.938;9.124;2022-09-09T07:46:57;8.87;;;1.90;;
12715;SDS011;6422;49.938;9.124;2022-09-09T07:49:22;13.37;;;2.67;;
12715;SDS011;6422;49.938;9.124;2022-09-09T07:51:47;8.90;;;2.43;;
12715;SDS011;6422;49.938;9.124;2022-09-09T07:54:15;9.77;;;1.97;;
12715;SDS011;6422;49.938;9.124;2022-09-09T07:56:40;13.10;;;2.60;;
12715;SDS011;6422;49.938;9.124;2022-09-09T07:59:06;9.83;;;2.27;;
12715;SDS011;6422;49.938;9.124;2022-09-09T08:01:33;15.83;;;2.30;;
12715;SDS011;6422;49.938;9.124;2022-09-09T08:04:04;10.00;;;2.10;;
12715;SDS011;6422;49.938;9.124;2022-09-09T08:06:30;8.70;;;1.70;;
12715;SDS011;6422;49.938;9.124;2022-09-09T08:08:55;14.10;;;2.20;;
12715;SDS011;6422;49.938;9.124;2022-09-09T08:11:21;11.67;;;2.37;;
12715;SDS011;6422;49.938;9.124;2022-09-09T08:13:48;9.80;;;1.80;;
12715;SDS011;6422;49.938;9.124;2022-09-09T08:16:14;8.93;;;1.90;;
12715;SDS011;6422;49.938;9.124;2022-09-09T08:18:40;8.13;;;1.73;;
12715;SDS011;6422;49.938;9.124;2022-09-09T08:21:06;11.10;;;2.33;;
12715;SDS011;6422;49.938;9.124;2022-09-09T08:23:33;7.87;;;1.83;;
12715;SDS011;6422;49.938;9.124;2022-09-09T08:26:03;9.97;;;1.97;;
12715;SDS011;6422;49.938;9.124;2022-09-09T08:28:29;17.93;;;2.20;;
12715;SDS011;6422;49.938;9.124;2022-09-09T08:30:55;9.73;;;1.70;;
12715;SDS011;6422;49.938;9.124;2022-09-09T08:33:20;8.13;;;1.80;;
12715;SDS011;6422;49.938;9.124;2022-09-09T08:35:52;9.30;;;2.10;;
12715;SDS011;6422;49.938;9.124;2022-09-09T08:38:17;13.23;;;2.10;;
12715;SDS011;6422;49.938;9.124;2022-09-09T08:40:43;9.23;;;2.00;;
12715;SDS011;6422;49.938;9.124;2022-09-09T08:43:11;19.60;;;3.80;;
12715;SDS011;6422;49.938;9.124;2022-09-09T08:45:45;11.93;;;2.43;;
12715;SDS011;6422;49.938;9.124;2022-09-09T08:48:19;10.27;;;2.30;;
12715;SDS011;6422;49.938;9.124;2022-09-09T08:50:45;13.30;;;3.27;;
12715;SDS011;6422;49.938;9.124;2022-09-09T08:53:21;10.00;;;2.80;;
12715;SDS011;6422;49.938;9.124;2022-09-09T08:58:29;14.60;;;2.97;;
12715;SDS011;6422;49.938;9.124;2022-09-09T09:01:14;12.30;;;2.53;;
12715;SDS011;6422;49.938;9.124;2022-09-09T09:11:26;8.60;;;2.30;;
12715;SDS011;6422;49.938;9.124;2022-09-09T09:13:53;11.65;;;2.63;;
12715;SDS011;6422;49.938;9.124;2022-09-09T09:18:48;12.77;;;3.30;;
12715;SDS011;6422;49.938;9.124;2022-09-09T09:21:17;11.20;;;3.00;;
12715;SDS011;6422;49.938;9.124;2022-09-09T09:23:48;18.63;;;3.57;;
12715;SDS011;6422;49.938;9.124;2022-09-09T09:26:15;11.47;;;2.70;;
12715;SDS011;6422;49.938;9.124;2022-09-09T09:28:41;11.83;;;2.60;;
12715;SDS011;6422;49.938;9.124;2022-09-09T09:31:07;11.00;;;2.40;;
12715;SDS011;6422;49.938;9.124;2022-09-09T09:33:35;15.87;;;2.80;;
12715;SDS011;6422;49.938;9.124;2022-09-09T09:36:02;11.27;;;2.80;;
12715;SDS011;6422;49.938;9.124;2022-09-09T09:38:28;10.13;;;2.60;;
12715;SDS011;6422;49.938;9.124;2022-09-09T09:40:55;11.70;;;2.87;;
12715;SDS011;6422;49.938;9.124;2022-09-09T09:43:30;11.33;;;2.70;;
12715;SDS011;6422;49.938;9.124;2022-09-09T09:45:56;16.23;;;3.07;;
12715;SDS011;6422;49.938;9.124;2022-09-09T09:48:23;12.70;;;3.80;;
12715;SDS011;6422;49.938;9.124;2022-09-09T09:50:52;11.57;;;3.53;;
12715;SDS011;6422;49.938;9.124;2022-09-09T09:53:20;14.70;;;3.17;;
12715;SDS011;6422;49.938;9.124;2022-09-09T09:55:59;13.83;;;3.70;;
12715;SDS011;6422;49.938;9.124;2022-09-09T09:58:25;11.43;;;3.00;;
12715;SDS011;6422;49.938;9.124;2022-09-09T10:00:52;10.67;;;2.63;;
12715;SDS011;6422;49.938;9.124;2022-09-09T10:03:22;11.90;;;3.23;;
12715;SDS011;6422;49.938;9.124;2022-09-09T10:05:47;11.83;;;3.00;;
12715;SDS011;6422;49.938;9.124;2022-09-09T10:08:13;13.00;;;3.50;;
12715;SDS011;6422;49.938;9.124;2022-09-09T10:15:53;14.80;;;2.75;;
12715;SDS011;6422;49.938;9.124;2022-09-09T10:18:40;9.67;;;3.30;;
12715;SDS011;6422;49.938;9.124;2022-09-09T10:21:12;10.93;;;3.10;;
12715;SDS011;6422;49.938;9.124;2022-09-09T10:28:57;9.13;;;2.55;;
12715;SDS011;6422;49.938;9.124;2022-09-09T10:31:43;11.23;;;2.60;;
12715;SDS011;6422;49.938;9.124;2022-09-09T10:36:44;10.50;;;2.97;;
12715;SDS011;6422;49.938;9.124;2022-09-09T10:41:50;19.13;;;3.53;;
12715;SDS011;6422;49.938;9.124;2022-09-09T10:52:15;15.37;;;3.67;;
12715;SDS011;6422;49.938;9.124;2022-09-09T10:57:11;13.70;;;4.07;;
12715;SDS011;6422;49.938;9.124;2022-09-09T10:59:40;10.87;;;2.70;;
12715;SDS011;6422;49.938;9.124;2022-09-09T11:02:12;16.33;;;3.90;;
12715;SDS011;6422;49.938;9.124;2022-09-09T11:04:42;19.63;;;3.13;;
12715;SDS011;6422;49.938;9.124;2022-09-09T11:07:10;13.57;;;2.30;;
12715;SDS011;6422;49.938;9.124;2022-09-09T11:09:38;10.23;;;3.33;;
12715;SDS011;6422;49.938;9.124;2022-09-09T11:12:05;10.97;;;3.37;;
12715;SDS011;6422;49.938;9.124;2022-09-09T11:14:37;21.40;;;3.17;;
12715;SDS011;6422;49.938;9.124;2022-09-09T11:17:08;9.40;;;3.37;;
12715;SDS011;6422;49.938;9.124;2022-09-09T11:19:35;10.60;;;2.50;;
12715;SDS011;6422;49.938;9.124;2022-09-09T11:22:02;11.27;;;3.03;;
12715;SDS011;6422;49.938;9.124;2022-09-09T11:24:37;14.00;;;2.50;;
12715;SDS011;6422;49.938;9.124;2022-09-09T11:27:11;10.73;;;2.70;;
12715;SDS011;6422;49.938;9.124;2022-09-09T11:29:47;23.67;;;3.13;;
12715;SDS011;6422;49.938;9.124;2022-09-09T11:35:21;12.50;;;2.90;;
12715;SDS011;6422;49.938;9.124;2022-09-09T11:40:36;9.50;;;2.80;;
12715;SDS011;6422;49.938;9.124;2022-09-09T11:43:02;10.70;;;3.20;;
12715;SDS011;6422;49.938;9.124;2022-09-09T11:45:29;10.20;;;2.40;;
12715;SDS011;6422;49.938;9.124;2022-09-09T11:47:55;11.40;;;2.60;;
12715;SDS011;6422;49.938;9.124;2022-09-09T11:52:47;46.83;;;3.80;;
12715;SDS011;6422;49.938;9.124;2022-09-09T11:57:58;9.67;;;2.43;;
12715;SDS011;6422;49.938;9.124;2022-09-09T12:00:38;10.83;;;2.43;;
12715;SDS011;6422;49.938;9.124;2022-09-09T12:03:05;11.90;;;2.67;;
12715;SDS011;6422;49.938;9.124;2022-09-09T12:05:40;12.13;;;2.70;;
12715;SDS011;6422;49.938;9.124;2022-09-09T12:08:08;11.20;;;3.43;;
12715;SDS011;6422;49.938;9.124;2022-09-09T12:10:35;7.80;;;2.83;;
12715;SDS011;6422;49.938;9.124;2022-09-09T12:13:16;9.83;;;3.20;;
12715;SDS011;6422;49.938;9.124;2022-09-09T12:15:48;13.33;;;2.70;;
12715;SDS011;6422;49.938;9.124;2022-09-09T12:18:15;11.67;;;2.60;;
12715;SDS011;6422;49.938;9.124;2022-09-09T12:28:54;10.70;;;3.40;;
12715;SDS011;6422;49.938;9.124;2022-09-09T12:33:50;10.83;;;2.77;;
12715;SDS011;6422;49.938;9.124;2022-09-09T12:36:38;11.63;;;2.50;;
12715;SDS011;6422;49.938;9.124;2022-09-09T12:39:10;10.70;;;2.57;;
12715;SDS011;6422;49.938;9.124;2022-09-09T12:41:37;10.50;;;2.30;;
12715;SDS011;6422;49.938;9.124;2022-09-09T12:44:05;12.30;;;3.15;;
12715;SDS011;6422;49.938;9.124;2022-09-09T12:46:43;10.57;;;2.50;;
12715;SDS011;6422;49.938;9.124;2022-09-09T12:49:29;11.13;;;2.87;;
12715;SDS011;6422;49.938;9.124;2022-09-09T12:51:59;11.37;;;2.40;;
12715;SDS011;6422;49.938;9.124;2022-09-09T12:54:25;11.60;;;2.80;;
12715;SDS011;6422;49.938;9.124;2022-09-09T12:56:50;9.50;;;2.67;;
12715;SDS011;6422;49.938;9.124;2022-09-09T12:59:23;9.93;;;2.70;;
12715;SDS011;6422;49.938;9.124;2022-09-09T13:01:54;10.23;;;2.57;;
12715;SDS011;6422;49.938;9.124;2022-09-09T13:04:20;17.83;;;2.60;;
12715;SDS011;6422;49.938;9.124;2022-09-09T13:06:47;12.47;;;2.80;;
12715;SDS011;6422;49.938;9.124;2022-09-09T13:09:12;11.70;;;2.50;;
12715;SDS011;6422;49.938;9.124;2022-09-09T13:14:03;13.00;;;3.23;;
12715;SDS011;6422;49.938;9.124;2022-09-09T13:16:29;12.03;;;2.80;;
12715;SDS011;6422;49.938;9.124;2022-09-09T13:18:56;11.10;;;2.50;;
12715;SDS011;6422;49.938;9.124;2022-09-09T13:21:34;12.87;;;3.07;;
12715;SDS011;6422;49.938;9.124;2022-09-09T13:24:00;16.70;;;2.60;;
12715;SDS011;6422;49.938;9.124;2022-09-09T13:26:28;10.63;;;3.20;;
12715;SDS011;6422;49.938;9.124;2022-09-09T13:28:55;11.33;;;2.53;;
12715;SDS011;6422;49.938;9.124;2022-09-09T13:33:46;9.18;;;1.90;;
12715;SDS011;6422;49.938;9.124;2022-09-09T13:36:11;11.63;;;3.07;;
12715;SDS011;6422;49.938;9.124;2022-09-09T13:38:38;11.80;;;3.00;;
12715;SDS011;6422;49.938;9.124;2022-09-09T13:41:07;10.40;;;2.53;;
12715;SDS011;6422;49.938;9.124;2022-09-09T13:43:36;11.53;;;2.83;;
12715;SDS011;6422;49.938;9.124;2022-09-09T13:46:21;11.33;;;2.83;;
12715;SDS011;6422;49.938;9.124;2022-09-09T13:48:58;9.43;;;3.03;;
12715;SDS011;6422;49.938;9.124;2022-09-09T13:51:34;11.70;;;2.80;;
12715;SDS011;6422;49.938;9.124;2022-09-09T13:54:00;9.80;;;2.90;;
12715;SDS011;6422;49.938;9.124;2022-09-09T13:56:26;8.63;;;2.73;;
12715;SDS011;6422;49.938;9.124;2022-09-09T13:58:51;13.90;;;3.00;;
12715;SDS011;6422;49.938;9.124;2022-09-09T14:01:16;8.03;;;2.30;;
12715;SDS011;6422;49.938;9.124;2022-09-09T14:03:41;10.85;;;2.70;;
12715;SDS011;6422;49.938;9.124;2022-09-09T14:06:07;13.30;;;2.40;;
12715;SDS011;6422;49.938;9.124;2022-09-09T14:08:32;9.00;;;2.87;;
12715;SDS011;6422;49.938;9.124;2022-09-09T14:11:02;12.10;;;2.50;;
12715;SDS011;6422;49.938;9.124;2022-09-09T14:13:27;9.30;;;2.10;;
12715;SDS011;6422;49.938;9.124;2022-09-09T14:15:52;8.60;;;1.87;;
12715;SDS011;6422;49.938;9.124;2022-09-09T14:18:18;9.47;;;2.33;;
12715;SDS011;6422;49.938;9.124;2022-09-09T14:20:44;9.73;;;2.37;;
12715;SDS011;6422;49.938;9.124;2022-09-09T14:23:10;9.40;;;2.30;;
12715;SDS011;6422;49.938;9.124;2022-09-09T14:25:35;9.77;;;2.10;;
12715;SDS011;6422;49.938;9.124;2022-09-09T14:28:01;8.07;;;3.17;;
12715;SDS011;6422;49.938;9.124;2022-09-09T14:30:27;7.40;;;2.30;;
12715;SDS011;6422;49.938;9.124;2022-09-09T14:32:52;10.80;;;2.83;;
12715;SDS011;6422;49.938;9.124;2022-09-09T14:35:17;10.70;;;2.08;;
12715;SDS011;6422;49.938;9.124;2022-09-09T14:37:43;9.90;;;2.40;;
12715;SDS011;6422;49.938;9.124;2022-09-09T14:40:09;10.00;;;2.57;;
12715;SDS011;6422;49.938;9.124;2022-09-09T14:42:36;14.53;;;2.47;;
12715;SDS011;6422;49.938;9.124;2022-09-09T14:45:01;10.83;;;2.20;;
12715;SDS011;6422;49.938;9.124;2022-09-09T14:47:26;11.37;;;2.20;;
12715;SDS011;6422;49.938;9.124;2022-09-09T14:49:51;10.50;;;2.40;;
12715;SDS011;6422;49.938;9.124;2022-09-09T14:52:18;11.17;;;2.00;;
12715;SDS011;6422;49.938;9.124;2022-09-09T14:54:43;10.23;;;2.20;;
12715;SDS011;6422;49.938;9.124;2022-09-09T14:57:08;9.20;;;2.47;;
12715;SDS011;6422;49.938;9.124;2022-09-09T14:59:33;11.60;;;2.07;;
12715;SDS011;6422;49.938;9.124;2022-09-09T15:01:59;11.47;;;2.20;;
12715;SDS011;6422;49.938;9.124;2022-09-09T15:04:28;10.43;;;2.20;;
12715;SDS011;6422;49.938;9.124;2022-09-09T15:06:54;9.73;;;1.80;;
12715;SDS011;6422;49.938;9.124;2022-09-09T15:09:19;11.30;;;2.67;;
12715;SDS011;6422;49.938;9.124;2022-09-09T15:11:44;7.63;;;1.40;;
12715;SDS011;6422;49.938;9.124;2022-09-09T15:14:10;13.43;;;1.90;;
12715;SDS011;6422;49.938;9.124;2022-09-09T15:16:37;15.20;;;1.73;;
12715;SDS011;6422;49.938;9.124;2022-09-09T15:19:03;9.40;;;1.97;;
12715;SDS011;6422;49.938;9.124;2022-09-09T15:21:29;10.70;;;2.07;;
12715;SDS011;6422;49.938;9.124;2022-09-09T15:23:55;11.83;;;1.90;;
12715;SDS011;6422;49.938;9.124;2022-09-09T15:26:20;9.40;;;1.57;;
12715;SDS011;6422;49.938;9.124;2022-09-09T15:28:46;9.67;;;2.10;;
12715;SDS011;6422;49.938;9.124;2022-09-09T15:31:16;16.73;;;1.70;;
12715;SDS011;6422;49.938;9.124;2022-09-09T15:33:51;7.83;;;1.70;;
12715;SDS011;6422;49.938;9.124;2022-09-09T15:36:17;9.60;;;1.70;;
12715;SDS011;6422;49.938;9.124;2022-09-09T15:38:42;8.37;;;1.50;;
12715;SDS011;6422;49.938;9.124;2022-09-09T15:41:08;8.57;;;1.73;;
12715;SDS011;6422;49.938;9.124;2022-09-09T15:43:34;11.30;;;2.10;;
12715;SDS011;6422;49.938;9.124;2022-09-09T15:46:00;11.50;;;2.03;;
12715;SDS011;6422;49.938;9.124;2022-09-09T15:48:30;13.63;;;1.67;;
12715;SDS011;6422;49.938;9.124;2022-09-09T15:51:06;9.00;;;1.53;;
12715;SDS011;6422;49.938;9.124;2022-09-09T15:53:31;12.93;;;2.73;;
12715;SDS011;6422;49.938;9.124;2022-09-09T15:55:59;9.20;;;1.70;;
12715;SDS011;6422;49.938;9.124;2022-09-09T15:58:24;10.47;;;1.70;;
12715;SDS011;6422;49.938;9.124;2022-09-09T16:00:49;10.33;;;1.80;;
12715;SDS011;6422;49.938;9.124;2022-09-09T16:03:15;11.10;;;1.93;;
12715;SDS011;6422;49.938;9.124;2022-09-09T16:05:40;10.13;;;2.00;;
12715;SDS011;6422;49.938;9.124;2022-09-09T16:08:05;10.47;;;1.80;;
12715;SDS011;6422;49.938;9.124;2022-09-09T16:10:30;11.63;;;1.70;;
12715;SDS011;6422;49.938;9.124;2022-09-09T16:12:56;7.73;;;1.80;;
12715;SDS011;6422;49.938;9.124;2022-09-09T16:15:21;8.60;;;1.53;;
12715;SDS011;6422;49.938;9.124;2022-09-09T16:17:48;9.40;;;1.63;;
12715;SDS011;6422;49.938;9.124;2022-09-09T16:20:13;9.77;;;1.90;;
12715;SDS011;6422;49.938;9.124;2022-09-09T16:22:39;8.20;;;1.70;;
12715;SDS011;6422;49.938;9.124;2022-09-09T16:25:05;10.37;;;1.87;;
12715;SDS011;6422;49.938;9.124;2022-09-09T16:27:30;8.33;;;2.07;;
12715;SDS011;6422;49.938;9.124;2022-09-09T16:29:55;9.87;;;2.17;;
12715;SDS011;6422;49.938;9.124;2022-09-09T16:32:21;9.60;;;1.57;;
12715;SDS011;6422;49.938;9.124;2022-09-09T16:34:47;9.07;;;2.30;;
12715;SDS011;6422;49.938;9.124;2022-09-09T16:37:12;8.00;;;2.63;;
12715;SDS011;6422;49.938;9.124;2022-09-09T16:39:37;9.23;;;1.80;;
12715;SDS011;6422;49.938;9.124;2022-09-09T16:42:02;8.57;;;1.42;;
12715;SDS011;6422;49.938;9.124;2022-09-09T16:44:29;13.30;;;1.57;;